sensor_id;sensor_type;location;lat;lon;timestamp;P1;durP1;ratioP1;P2;durP2;ratioP2
78610;SDS011;67932;50.474;4.436;2023-03-08T00:01:38;14.25;;;6.85;;
78610;SDS011;67932;50.474;4.436;2023-03-08T00:04:04;15.93;;;6.38;;
78610;SDS011;67932;50.474;4.436;2023-03-08T00:06:30;14.80;;;6.97;;
78610;SDS011;67932;50.474;4.436;2023-03-08T00:08:57;14.02;;;7.47;;
78610;SDS011;67932;50.474;4.436;2023-03-08T00:11:23;17.50;;;7.22;;
78610;SDS011;67932;50.474;4.436;2023-03-08T00:13:49;18.45;;;7.93;;
78610;SDS011;67932;50.474;4.436;2023-03-08T00:16:15;20.92;;;9.18;;
78610;SDS011;67932;50.474;4.436;2023-03-08T00:18:41;23.75;;;10.23;;
78610;SDS011;67932;50.474;4.436;2023-03-08T00:21:08;27.52;;;11.27;;
78610;SDS011;67932;50.474;4.436;2023-03-08T00:23:35;24.73;;;10.18;;
78610;SDS011;67932;50.474;4.436;2023-03-08T00:26:01;25.08;;;11.05;;
78610;SDS011;67932;50.474;4.436;2023-03-08T00:28:27;24.73;;;11.00;;
78610;SDS011;67932;50.474;4.436;2023-03-08T00:30:57;22.92;;;10.60;;
78610;SDS011;67932;50.474;4.436;2023-03-08T00:33:23;23.55;;;10.38;;
78610;SDS011;67932;50.474;4.436;2023-03-08T00:35:53;23.63;;;10.38;;
78610;SDS011;67932;50.474;4.436;2023-03-08T00:38:20;25.40;;;10.75;;
78610;SDS011;67932;50.474;4.436;2023-03-08T00:40:46;23.15;;;10.30;;
78610;SDS011;67932;50.474;4.436;2023-03-08T00:43:12;24.73;;;12.45;;
78610;SDS011;67932;50.474;4.436;2023-03-08T00:45:38;24.75;;;11.38;;
78610;SDS011;67932;50.474;4.436;2023-03-08T00:48:04;26.77;;;12.60;;
78610;SDS011;67932;50.474;4.436;2023-03-08T00:50:30;29.50;;;12.40;;
78610;SDS011;67932;50.474;4.436;2023-03-08T00:52:56;27.38;;;12.10;;
78610;SDS011;67932;50.474;4.436;2023-03-08T00:55:22;30.00;;;12.07;;
78610;SDS011;67932;50.474;4.436;2023-03-08T00:57:48;27.05;;;12.30;;
78610;SDS011;67932;50.474;4.436;2023-03-08T01:02:40;27.70;;;11.00;;
78610;SDS011;67932;50.474;4.436;2023-03-08T01:07:32;24.55;;;10.55;;
78610;SDS011;67932;50.474;4.436;2023-03-08T01:09:59;21.88;;;9.55;;
78610;SDS011;67932;50.474;4.436;2023-03-08T01:12:25;24.27;;;9.95;;
78610;SDS011;67932;50.474;4.436;2023-03-08T01:14:51;25.00;;;11.20;;
78610;SDS011;67932;50.474;4.436;2023-03-08T01:17:18;24.17;;;10.65;;
78610;SDS011;67932;50.474;4.436;2023-03-08T01:19:44;27.95;;;11.27;;
78610;SDS011;67932;50.474;4.436;2023-03-08T01:22:10;28.10;;;11.48;;
78610;SDS011;67932;50.474;4.436;2023-03-08T01:24:36;25.33;;;11.15;;
78610;SDS011;67932;50.474;4.436;2023-03-08T01:27:02;28.17;;;11.13;;
78610;SDS011;67932;50.474;4.436;2023-03-08T01:29:28;23.90;;;11.32;;
78610;SDS011;67932;50.474;4.436;2023-03-08T01:31:54;23.40;;;11.23;;
78610;SDS011;67932;50.474;4.436;2023-03-08T01:34:20;28.75;;;10.90;;
78610;SDS011;67932;50.474;4.436;2023-03-08T01:36:46;24.45;;;11.02;;
78610;SDS011;67932;50.474;4.436;2023-03-08T01:39:12;23.00;;;10.88;;
78610;SDS011;67932;50.474;4.436;2023-03-08T01:41:38;28.38;;;11.75;;
78610;SDS011;67932;50.474;4.436;2023-03-08T01:44:05;23.58;;;11.10;;
78610;SDS011;67932;50.474;4.436;2023-03-08T01:46:32;26.98;;;11.15;;
78610;SDS011;67932;50.474;4.436;2023-03-08T01:54:12;23.70;;;10.30;;
78610;SDS011;67932;50.474;4.436;2023-03-08T01:56:39;21.77;;;10.48;;
78610;SDS011;67932;50.474;4.436;2023-03-08T01:59:06;27.60;;;9.95;;
78610;SDS011;67932;50.474;4.436;2023-03-08T02:01:32;24.48;;;9.35;;
78610;SDS011;67932;50.474;4.436;2023-03-08T02:03:59;23.75;;;9.75;;
78610;SDS011;67932;50.474;4.436;2023-03-08T02:06:25;24.38;;;8.93;;
78610;SDS011;67932;50.474;4.436;2023-03-08T02:08:52;21.45;;;9.52;;
78610;SDS011;67932;50.474;4.436;2023-03-08T02:11:19;20.50;;;8.82;;
78610;SDS011;67932;50.474;4.436;2023-03-08T02:13:45;22.70;;;9.05;;
78610;SDS011;67932;50.474;4.436;2023-03-08T02:16:12;22.15;;;8.63;;
78610;SDS011;67932;50.474;4.436;2023-03-08T02:18:49;22.63;;;8.13;;
78610;SDS011;67932;50.474;4.436;2023-03-08T02:21:15;22.00;;;8.32;;
78610;SDS011;67932;50.474;4.436;2023-03-08T02:23:41;18.85;;;8.18;;
78610;SDS011;67932;50.474;4.436;2023-03-08T02:26:07;20.90;;;8.38;;
78610;SDS011;67932;50.474;4.436;2023-03-08T02:28:33;17.13;;;7.50;;
78610;SDS011;67932;50.474;4.436;2023-03-08T02:30:59;17.88;;;8.45;;
78610;SDS011;67932;50.474;4.436;2023-03-08T02:33:25;20.30;;;8.85;;
78610;SDS011;67932;50.474;4.436;2023-03-08T02:35:52;20.45;;;8.18;;
78610;SDS011;67932;50.474;4.436;2023-03-08T02:40:44;17.88;;;7.70;;
78610;SDS011;67932;50.474;4.436;2023-03-08T02:43:10;18.25;;;7.75;;
78610;SDS011;67932;50.474;4.436;2023-03-08T02:45:37;16.98;;;7.47;;
78610;SDS011;67932;50.474;4.436;2023-03-08T02:48:03;16.48;;;7.25;;
78610;SDS011;67932;50.474;4.436;2023-03-08T02:50:30;17.10;;;6.80;;
78610;SDS011;67932;50.474;4.436;2023-03-08T02:52:57;19.25;;;7.50;;
78610;SDS011;67932;50.474;4.436;2023-03-08T02:55:23;17.70;;;7.65;;
78610;SDS011;67932;50.474;4.436;2023-03-08T02:57:49;18.27;;;7.75;;
78610;SDS011;67932;50.474;4.436;2023-03-08T03:00:15;18.73;;;7.93;;
78610;SDS011;67932;50.474;4.436;2023-03-08T03:02:41;14.77;;;6.75;;
78610;SDS011;67932;50.474;4.436;2023-03-08T03:05:08;12.07;;;5.63;;
78610;SDS011;67932;50.474;4.436;2023-03-08T03:07:35;13.38;;;6.13;;
78610;SDS011;67932;50.474;4.436;2023-03-08T03:10:03;12.82;;;5.63;;
78610;SDS011;67932;50.474;4.436;2023-03-08T03:12:29;11.95;;;6.50;;
78610;SDS011;67932;50.474;4.436;2023-03-08T03:14:55;11.93;;;5.85;;
78610;SDS011;67932;50.474;4.436;2023-03-08T03:17:21;11.50;;;5.13;;
78610;SDS011;67932;50.474;4.436;2023-03-08T03:19:47;12.95;;;5.78;;
78610;SDS011;67932;50.474;4.436;2023-03-08T03:22:13;11.63;;;5.50;;
78610;SDS011;67932;50.474;4.436;2023-03-08T03:24:39;12.07;;;5.25;;
78610;SDS011;67932;50.474;4.436;2023-03-08T03:27:05;13.38;;;5.63;;
78610;SDS011;67932;50.474;4.436;2023-03-08T03:29:31;11.80;;;5.57;;
78610;SDS011;67932;50.474;4.436;2023-03-08T03:31:57;12.45;;;6.22;;
78610;SDS011;67932;50.474;4.436;2023-03-08T03:34:23;11.23;;;4.93;;
78610;SDS011;67932;50.474;4.436;2023-03-08T03:36:50;9.63;;;5.38;;
78610;SDS011;67932;50.474;4.436;2023-03-08T03:41:42;11.88;;;5.50;;
78610;SDS011;67932;50.474;4.436;2023-03-08T03:44:08;11.60;;;5.05;;
78610;SDS011;67932;50.474;4.436;2023-03-08T03:46:34;12.30;;;4.97;;
78610;SDS011;67932;50.474;4.436;2023-03-08T03:51:26;10.65;;;5.97;;
78610;SDS011;67932;50.474;4.436;2023-03-08T03:53:52;12.07;;;5.88;;
78610;SDS011;67932;50.474;4.436;2023-03-08T03:58:44;11.90;;;4.60;;
78610;SDS011;67932;50.474;4.436;2023-03-08T04:01:13;13.43;;;5.93;;
78610;SDS011;67932;50.474;4.436;2023-03-08T04:03:39;10.98;;;5.30;;
78610;SDS011;67932;50.474;4.436;2023-03-08T04:08:31;12.77;;;5.18;;
78610;SDS011;67932;50.474;4.436;2023-03-08T04:11:00;11.55;;;5.40;;
78610;SDS011;67932;50.474;4.436;2023-03-08T04:13:26;11.15;;;5.25;;
78610;SDS011;67932;50.474;4.436;2023-03-08T04:18:18;12.10;;;5.70;;
78610;SDS011;67932;50.474;4.436;2023-03-08T04:20:44;12.57;;;6.55;;
78610;SDS011;67932;50.474;4.436;2023-03-08T04:23:11;11.50;;;5.70;;
78610;SDS011;67932;50.474;4.436;2023-03-08T04:28:03;12.52;;;5.22;;
78610;SDS011;67932;50.474;4.436;2023-03-08T04:30:29;12.98;;;6.53;;
78610;SDS011;67932;50.474;4.436;2023-03-08T04:32:55;11.55;;;6.30;;
78610;SDS011;67932;50.474;4.436;2023-03-08T04:35:21;12.82;;;6.13;;
78610;SDS011;67932;50.474;4.436;2023-03-08T04:37:47;10.95;;;5.95;;
78610;SDS011;67932;50.474;4.436;2023-03-08T04:40:13;10.38;;;6.03;;
78610;SDS011;67932;50.474;4.436;2023-03-08T04:42:39;12.55;;;5.60;;
78610;SDS011;67932;50.474;4.436;2023-03-08T04:45:06;11.10;;;5.70;;
78610;SDS011;67932;50.474;4.436;2023-03-08T04:47:32;12.00;;;5.82;;
78610;SDS011;67932;50.474;4.436;2023-03-08T04:49:58;12.30;;;6.32;;
78610;SDS011;67932;50.474;4.436;2023-03-08T04:54:50;10.98;;;5.07;;
78610;SDS011;67932;50.474;4.436;2023-03-08T04:57:16;11.35;;;5.65;;
78610;SDS011;67932;50.474;4.436;2023-03-08T04:59:42;10.43;;;5.63;;
78610;SDS011;67932;50.474;4.436;2023-03-08T05:02:08;10.52;;;5.57;;
78610;SDS011;67932;50.474;4.436;2023-03-08T05:04:34;12.93;;;6.82;;
78610;SDS011;67932;50.474;4.436;2023-03-08T05:09:26;11.90;;;5.88;;
78610;SDS011;67932;50.474;4.436;2023-03-08T05:11:52;10.57;;;5.68;;
78610;SDS011;67932;50.474;4.436;2023-03-08T05:16:45;13.93;;;7.32;;
78610;SDS011;67932;50.474;4.436;2023-03-08T05:19:12;13.52;;;6.43;;
78610;SDS011;67932;50.474;4.436;2023-03-08T05:24:04;15.93;;;7.00;;
78610;SDS011;67932;50.474;4.436;2023-03-08T05:26:30;12.55;;;6.40;;
78610;SDS011;67932;50.474;4.436;2023-03-08T05:28:56;12.35;;;6.47;;
78610;SDS011;67932;50.474;4.436;2023-03-08T05:31:22;12.80;;;6.70;;
78610;SDS011;67932;50.474;4.436;2023-03-08T05:36:15;10.65;;;5.38;;
78610;SDS011;67932;50.474;4.436;2023-03-08T05:38:41;11.65;;;5.45;;
78610;SDS011;67932;50.474;4.436;2023-03-08T05:41:08;9.77;;;5.40;;
78610;SDS011;67932;50.474;4.436;2023-03-08T05:43:36;10.85;;;6.15;;
78610;SDS011;67932;50.474;4.436;2023-03-08T05:46:03;11.32;;;5.43;;
78610;SDS011;67932;50.474;4.436;2023-03-08T05:48:30;10.02;;;5.20;;
78610;SDS011;67932;50.474;4.436;2023-03-08T05:50:56;10.30;;;5.80;;
78610;SDS011;67932;50.474;4.436;2023-03-08T05:53:22;12.95;;;5.63;;
78610;SDS011;67932;50.474;4.436;2023-03-08T05:58:14;10.30;;;5.38;;
78610;SDS011;67932;50.474;4.436;2023-03-08T06:00:40;9.98;;;5.53;;
78610;SDS011;67932;50.474;4.436;2023-03-08T06:12:43;7.78;;;4.63;;
78610;SDS011;67932;50.474;4.436;2023-03-08T06:15:09;9.23;;;4.35;;
78610;SDS011;67932;50.474;4.436;2023-03-08T06:17:37;8.75;;;4.57;;
78610;SDS011;67932;50.474;4.436;2023-03-08T06:20:03;7.38;;;4.65;;
78610;SDS011;67932;50.474;4.436;2023-03-08T06:25:32;7.68;;;3.95;;
78610;SDS011;67932;50.474;4.436;2023-03-08T06:27:58;7.78;;;4.28;;
78610;SDS011;67932;50.474;4.436;2023-03-08T06:30:25;8.65;;;4.43;;
78610;SDS011;67932;50.474;4.436;2023-03-08T06:32:51;7.18;;;3.83;;
78610;SDS011;67932;50.474;4.436;2023-03-08T06:37:43;7.68;;;4.15;;
78610;SDS011;67932;50.474;4.436;2023-03-08T06:40:09;8.00;;;3.97;;
78610;SDS011;67932;50.474;4.436;2023-03-08T06:42:37;8.45;;;4.55;;
78610;SDS011;67932;50.474;4.436;2023-03-08T06:45:04;8.60;;;4.75;;
78610;SDS011;67932;50.474;4.436;2023-03-08T06:47:30;8.93;;;4.85;;
78610;SDS011;67932;50.474;4.436;2023-03-08T06:49:58;11.38;;;6.00;;
78610;SDS011;67932;50.474;4.436;2023-03-08T06:52:24;9.85;;;4.72;;
78610;SDS011;67932;50.474;4.436;2023-03-08T06:54:50;8.10;;;4.40;;
78610;SDS011;67932;50.474;4.436;2023-03-08T06:57:16;7.65;;;4.53;;
78610;SDS011;67932;50.474;4.436;2023-03-08T06:59:42;7.95;;;4.22;;
78610;SDS011;67932;50.474;4.436;2023-03-08T07:02:09;7.25;;;4.55;;
78610;SDS011;67932;50.474;4.436;2023-03-08T07:04:35;7.50;;;4.10;;
78610;SDS011;67932;50.474;4.436;2023-03-08T07:07:02;5.80;;;3.85;;
78610;SDS011;67932;50.474;4.436;2023-03-08T07:09:28;6.53;;;3.67;;
78610;SDS011;67932;50.474;4.436;2023-03-08T07:11:54;6.03;;;3.92;;
78610;SDS011;67932;50.474;4.436;2023-03-08T07:14:21;6.45;;;4.43;;
78610;SDS011;67932;50.474;4.436;2023-03-08T07:16:47;8.20;;;4.88;;
78610;SDS011;67932;50.474;4.436;2023-03-08T07:19:13;7.28;;;4.65;;
78610;SDS011;67932;50.474;4.436;2023-03-08T07:21:39;7.85;;;4.80;;
78610;SDS011;67932;50.474;4.436;2023-03-08T07:24:08;9.02;;;4.70;;
78610;SDS011;67932;50.474;4.436;2023-03-08T07:26:36;8.23;;;4.55;;
78610;SDS011;67932;50.474;4.436;2023-03-08T07:29:02;6.90;;;4.18;;
78610;SDS011;67932;50.474;4.436;2023-03-08T07:31:28;6.93;;;4.22;;
78610;SDS011;67932;50.474;4.436;2023-03-08T07:33:56;7.78;;;4.68;;
78610;SDS011;67932;50.474;4.436;2023-03-08T07:36:22;9.38;;;5.00;;
78610;SDS011;67932;50.474;4.436;2023-03-08T07:38:48;8.30;;;4.57;;
78610;SDS011;67932;50.474;4.436;2023-03-08T07:41:14;6.72;;;4.28;;
78610;SDS011;67932;50.474;4.436;2023-03-08T07:43:40;8.10;;;4.30;;
78610;SDS011;67932;50.474;4.436;2023-03-08T07:46:06;7.95;;;4.35;;
78610;SDS011;67932;50.474;4.436;2023-03-08T07:48:33;8.88;;;5.00;;
78610;SDS011;67932;50.474;4.436;2023-03-08T07:51:00;7.80;;;4.13;;
78610;SDS011;67932;50.474;4.436;2023-03-08T07:53:27;7.75;;;3.90;;
78610;SDS011;67932;50.474;4.436;2023-03-08T07:55:53;8.32;;;4.78;;
78610;SDS011;67932;50.474;4.436;2023-03-08T07:58:19;7.53;;;4.40;;
78610;SDS011;67932;50.474;4.436;2023-03-08T08:00:46;8.93;;;5.10;;
78610;SDS011;67932;50.474;4.436;2023-03-08T08:03:12;7.07;;;3.78;;
78610;SDS011;67932;50.474;4.436;2023-03-08T08:05:38;10.65;;;4.57;;
78610;SDS011;67932;50.474;4.436;2023-03-08T08:08:04;9.48;;;4.15;;
78610;SDS011;67932;50.474;4.436;2023-03-08T08:10:30;8.23;;;3.83;;
78610;SDS011;67932;50.474;4.436;2023-03-08T08:12:59;5.85;;;3.88;;
78610;SDS011;67932;50.474;4.436;2023-03-08T08:15:28;5.78;;;3.53;;
78610;SDS011;67932;50.474;4.436;2023-03-08T08:17:56;9.00;;;4.65;;
78610;SDS011;67932;50.474;4.436;2023-03-08T08:20:24;8.38;;;4.55;;
78610;SDS011;67932;50.474;4.436;2023-03-08T08:22:51;6.88;;;4.50;;
78610;SDS011;67932;50.474;4.436;2023-03-08T08:25:19;8.00;;;4.30;;
78610;SDS011;67932;50.474;4.436;2023-03-08T08:27:45;9.80;;;4.63;;
78610;SDS011;67932;50.474;4.436;2023-03-08T08:30:12;8.90;;;4.75;;
78610;SDS011;67932;50.474;4.436;2023-03-08T08:32:41;11.18;;;5.20;;
78610;SDS011;67932;50.474;4.436;2023-03-08T08:35:08;7.40;;;5.00;;
78610;SDS011;67932;50.474;4.436;2023-03-08T08:37:37;7.53;;;4.65;;
78610;SDS011;67932;50.474;4.436;2023-03-08T08:40:03;7.43;;;4.28;;
78610;SDS011;67932;50.474;4.436;2023-03-08T08:42:32;10.95;;;5.00;;
78610;SDS011;67932;50.474;4.436;2023-03-08T08:45:00;9.68;;;5.35;;
78610;SDS011;67932;50.474;4.436;2023-03-08T08:47:30;9.52;;;5.55;;
78610;SDS011;67932;50.474;4.436;2023-03-08T08:49:56;9.45;;;5.30;;
78610;SDS011;67932;50.474;4.436;2023-03-08T08:52:23;9.18;;;5.10;;
78610;SDS011;67932;50.474;4.436;2023-03-08T08:54:50;8.88;;;4.95;;
78610;SDS011;67932;50.474;4.436;2023-03-08T08:57:23;8.57;;;4.90;;
78610;SDS011;67932;50.474;4.436;2023-03-08T08:59:52;11.15;;;5.90;;
78610;SDS011;67932;50.474;4.436;2023-03-08T09:02:18;9.25;;;5.20;;
78610;SDS011;67932;50.474;4.436;2023-03-08T09:04:44;9.35;;;5.35;;
78610;SDS011;67932;50.474;4.436;2023-03-08T09:07:17;11.65;;;5.47;;
78610;SDS011;67932;50.474;4.436;2023-03-08T09:09:44;7.90;;;4.45;;
78610;SDS011;67932;50.474;4.436;2023-03-08T09:12:10;8.57;;;5.50;;
78610;SDS011;67932;50.474;4.436;2023-03-08T09:14:37;8.68;;;4.95;;
78610;SDS011;67932;50.474;4.436;2023-03-08T09:17:04;8.45;;;4.63;;
78610;SDS011;67932;50.474;4.436;2023-03-08T09:19:31;7.18;;;4.22;;
78610;SDS011;67932;50.474;4.436;2023-03-08T09:21:57;6.47;;;4.22;;
78610;SDS011;67932;50.474;4.436;2023-03-08T09:24:23;8.63;;;4.32;;
78610;SDS011;67932;50.474;4.436;2023-03-08T09:26:50;5.28;;;3.63;;
78610;SDS011;67932;50.474;4.436;2023-03-08T09:29:19;6.90;;;4.53;;
78610;SDS011;67932;50.474;4.436;2023-03-08T09:31:48;6.72;;;4.53;;
78610;SDS011;67932;50.474;4.436;2023-03-08T09:34:17;6.60;;;4.30;;
78610;SDS011;67932;50.474;4.436;2023-03-08T09:36:43;6.00;;;4.38;;
78610;SDS011;67932;50.474;4.436;2023-03-08T09:39:12;6.53;;;4.18;;
78610;SDS011;67932;50.474;4.436;2023-03-08T09:41:46;6.72;;;4.22;;
78610;SDS011;67932;50.474;4.436;2023-03-08T09:49:43;6.93;;;4.13;;
78610;SDS011;67932;50.474;4.436;2023-03-08T09:52:16;6.47;;;4.13;;
78610;SDS011;67932;50.474;4.436;2023-03-08T09:54:49;6.82;;;4.47;;
78610;SDS011;67932;50.474;4.436;2023-03-08T09:57:35;7.28;;;4.35;;
78610;SDS011;67932;50.474;4.436;2023-03-08T10:00:27;6.05;;;3.80;;
78610;SDS011;67932;50.474;4.436;2023-03-08T10:13:39;5.53;;;3.55;;
78610;SDS011;67932;50.474;4.436;2023-03-08T10:16:11;5.32;;;3.50;;
78610;SDS011;67932;50.474;4.436;2023-03-08T10:18:45;8.32;;;4.13;;
78610;SDS011;67932;50.474;4.436;2023-03-08T10:21:14;5.45;;;3.38;;
78610;SDS011;67932;50.474;4.436;2023-03-08T10:23:43;6.32;;;3.63;;
78610;SDS011;67932;50.474;4.436;2023-03-08T10:26:10;5.93;;;3.45;;
78610;SDS011;67932;50.474;4.436;2023-03-08T10:28:37;4.65;;;3.45;;
78610;SDS011;67932;50.474;4.436;2023-03-08T10:31:26;5.18;;;3.25;;
78610;SDS011;67932;50.474;4.436;2023-03-08T10:33:51;6.38;;;3.53;;
78610;SDS011;67932;50.474;4.436;2023-03-08T10:36:21;4.40;;;3.25;;
78610;SDS011;67932;50.474;4.436;2023-03-08T10:38:57;4.43;;;2.95;;
78610;SDS011;67932;50.474;4.436;2023-03-08T10:41:24;5.15;;;3.00;;
78610;SDS011;67932;50.474;4.436;2023-03-08T10:43:52;6.55;;;4.10;;
78610;SDS011;67932;50.474;4.436;2023-03-08T10:46:19;5.45;;;3.45;;
78610;SDS011;67932;50.474;4.436;2023-03-08T10:48:46;5.78;;;3.53;;
78610;SDS011;67932;50.474;4.436;2023-03-08T10:51:19;4.93;;;3.47;;
78610;SDS011;67932;50.474;4.436;2023-03-08T10:56:52;6.13;;;3.60;;
78610;SDS011;67932;50.474;4.436;2023-03-08T10:59:20;5.03;;;3.33;;
78610;SDS011;67932;50.474;4.436;2023-03-08T11:01:52;5.20;;;3.60;;
78610;SDS011;67932;50.474;4.436;2023-03-08T11:04:19;5.15;;;3.42;;
78610;SDS011;67932;50.474;4.436;2023-03-08T11:06:46;5.85;;;3.80;;
78610;SDS011;67932;50.474;4.436;2023-03-08T11:09:22;4.88;;;3.08;;
78610;SDS011;67932;50.474;4.436;2023-03-08T11:11:50;4.72;;;3.25;;
78610;SDS011;67932;50.474;4.436;2023-03-08T11:14:17;4.68;;;3.35;;
78610;SDS011;67932;50.474;4.436;2023-03-08T11:24:31;4.30;;;2.95;;
78610;SDS011;67932;50.474;4.436;2023-03-08T11:32:06;6.15;;;3.20;;
78610;SDS011;67932;50.474;4.436;2023-03-08T11:39:42;5.60;;;3.35;;
78610;SDS011;67932;50.474;4.436;2023-03-08T11:53:27;6.47;;;3.47;;
78610;SDS011;67932;50.474;4.436;2023-03-08T11:58:47;5.65;;;4.10;;
78610;SDS011;67932;50.474;4.436;2023-03-08T12:01:16;5.80;;;3.63;;
78610;SDS011;67932;50.474;4.436;2023-03-08T12:03:45;4.13;;;2.55;;
78610;SDS011;67932;50.474;4.436;2023-03-08T12:09:00;5.43;;;3.28;;
78610;SDS011;67932;50.474;4.436;2023-03-08T12:11:37;3.88;;;3.10;;
78610;SDS011;67932;50.474;4.436;2023-03-08T12:14:13;7.32;;;3.60;;
78610;SDS011;67932;50.474;4.436;2023-03-08T12:16:44;6.07;;;3.45;;
78610;SDS011;67932;50.474;4.436;2023-03-08T12:22:06;5.38;;;3.50;;
78610;SDS011;67932;50.474;4.436;2023-03-08T12:27:08;4.50;;;3.00;;
78610;SDS011;67932;50.474;4.436;2023-03-08T12:29:41;7.03;;;3.58;;
78610;SDS011;67932;50.474;4.436;2023-03-08T12:32:08;4.82;;;3.53;;
78610;SDS011;67932;50.474;4.436;2023-03-08T12:34:40;6.95;;;3.75;;
78610;SDS011;67932;50.474;4.436;2023-03-08T12:37:19;5.78;;;3.75;;
78610;SDS011;67932;50.474;4.436;2023-03-08T12:39:59;6.72;;;4.13;;
78610;SDS011;67932;50.474;4.436;2023-03-08T12:42:36;5.05;;;3.45;;
78610;SDS011;67932;50.474;4.436;2023-03-08T12:45:36;5.97;;;4.03;;
78610;SDS011;67932;50.474;4.436;2023-03-08T12:50:22;7.68;;;3.97;;
78610;SDS011;67932;50.474;4.436;2023-03-08T12:52:48;6.85;;;3.90;;
78610;SDS011;67932;50.474;4.436;2023-03-08T12:55:24;6.53;;;4.05;;
78610;SDS011;67932;50.474;4.436;2023-03-08T12:57:57;8.52;;;4.38;;
78610;SDS011;67932;50.474;4.436;2023-03-08T13:10:39;7.55;;;4.57;;
78610;SDS011;67932;50.474;4.436;2023-03-08T13:15:35;8.90;;;5.03;;
78610;SDS011;67932;50.474;4.436;2023-03-08T13:28:08;7.85;;;5.07;;
78610;SDS011;67932;50.474;4.436;2023-03-08T13:30:56;8.60;;;5.25;;
78610;SDS011;67932;50.474;4.436;2023-03-08T13:33:28;9.73;;;6.00;;
78610;SDS011;67932;50.474;4.436;2023-03-08T13:35:55;10.40;;;5.63;;
78610;SDS011;67932;50.474;4.436;2023-03-08T13:38:22;8.50;;;5.35;;
78610;SDS011;67932;50.474;4.436;2023-03-08T13:40:52;8.73;;;5.80;;
78610;SDS011;67932;50.474;4.436;2023-03-08T13:43:23;9.82;;;5.18;;
78610;SDS011;67932;50.474;4.436;2023-03-08T13:45:53;9.55;;;5.80;;
78610;SDS011;67932;50.474;4.436;2023-03-08T13:48:20;7.93;;;5.10;;
78610;SDS011;67932;50.474;4.436;2023-03-08T13:50:48;8.70;;;5.68;;
78610;SDS011;67932;50.474;4.436;2023-03-08T13:53:19;8.73;;;4.90;;
78610;SDS011;67932;50.474;4.436;2023-03-08T13:55:46;9.02;;;5.05;;
78610;SDS011;67932;50.474;4.436;2023-03-08T13:58:33;6.97;;;5.05;;
78610;SDS011;67932;50.474;4.436;2023-03-08T14:01:01;8.70;;;5.07;;
78610;SDS011;67932;50.474;4.436;2023-03-08T14:03:28;10.80;;;5.20;;
78610;SDS011;67932;50.474;4.436;2023-03-08T14:05:55;7.55;;;4.65;;
78610;SDS011;67932;50.474;4.436;2023-03-08T14:08:22;9.43;;;5.20;;
78610;SDS011;67932;50.474;4.436;2023-03-08T14:10:58;11.02;;;5.68;;
78610;SDS011;67932;50.474;4.436;2023-03-08T14:13:27;10.05;;;5.65;;
78610;SDS011;67932;50.474;4.436;2023-03-08T14:15:56;9.73;;;5.43;;
78610;SDS011;67932;50.474;4.436;2023-03-08T14:18:23;9.10;;;6.03;;
78610;SDS011;67932;50.474;4.436;2023-03-08T14:23:25;8.02;;;5.28;;
78610;SDS011;67932;50.474;4.436;2023-03-08T14:25:55;9.20;;;5.50;;
78610;SDS011;67932;50.474;4.436;2023-03-08T14:28:34;10.38;;;6.05;;
78610;SDS011;67932;50.474;4.436;2023-03-08T14:31:01;10.27;;;6.18;;
78610;SDS011;67932;50.474;4.436;2023-03-08T14:33:27;12.20;;;6.05;;
78610;SDS011;67932;50.474;4.436;2023-03-08T14:35:54;9.45;;;6.00;;
78610;SDS011;67932;50.474;4.436;2023-03-08T14:40:48;10.02;;;5.40;;
78610;SDS011;67932;50.474;4.436;2023-03-08T14:43:19;10.00;;;6.05;;
78610;SDS011;67932;50.474;4.436;2023-03-08T14:46:04;9.90;;;6.32;;
78610;SDS011;67932;50.474;4.436;2023-03-08T14:53:54;8.98;;;6.15;;
78610;SDS011;67932;50.474;4.436;2023-03-08T14:56:13;10.85;;;6.55;;
78610;SDS011;67932;50.474;4.436;2023-03-08T14:58:40;13.63;;;7.10;;
78610;SDS011;67932;50.474;4.436;2023-03-08T15:01:07;9.85;;;5.53;;
78610;SDS011;67932;50.474;4.436;2023-03-08T15:03:33;11.25;;;6.15;;
78610;SDS011;67932;50.474;4.436;2023-03-08T15:06:05;9.65;;;5.72;;
78610;SDS011;67932;50.474;4.436;2023-03-08T15:08:32;9.25;;;5.95;;
78610;SDS011;67932;50.474;4.436;2023-03-08T15:10:58;9.27;;;6.28;;
78610;SDS011;67932;50.474;4.436;2023-03-08T15:13:24;11.93;;;7.15;;
78610;SDS011;67932;50.474;4.436;2023-03-08T15:15:51;9.65;;;5.10;;
78610;SDS011;67932;50.474;4.436;2023-03-08T15:18:17;8.15;;;5.13;;
78610;SDS011;67932;50.474;4.436;2023-03-08T15:20:44;7.85;;;4.68;;
78610;SDS011;67932;50.474;4.436;2023-03-08T15:23:15;9.60;;;5.00;;
78610;SDS011;67932;50.474;4.436;2023-03-08T15:25:42;7.97;;;5.00;;
78610;SDS011;67932;50.474;4.436;2023-03-08T15:28:09;10.38;;;5.32;;
78610;SDS011;67932;50.474;4.436;2023-03-08T15:30:35;9.20;;;5.38;;
78610;SDS011;67932;50.474;4.436;2023-03-08T15:33:01;8.75;;;5.47;;
78610;SDS011;67932;50.474;4.436;2023-03-08T15:35:28;8.02;;;4.85;;
78610;SDS011;67932;50.474;4.436;2023-03-08T15:37:54;9.30;;;5.65;;
78610;SDS011;67932;50.474;4.436;2023-03-08T15:40:25;9.27;;;5.40;;
78610;SDS011;67932;50.474;4.436;2023-03-08T15:42:51;9.40;;;5.70;;
78610;SDS011;67932;50.474;4.436;2023-03-08T15:45:18;9.40;;;5.90;;
78610;SDS011;67932;50.474;4.436;2023-03-08T15:47:54;8.73;;;6.03;;
78610;SDS011;67932;50.474;4.436;2023-03-08T15:50:20;12.82;;;7.00;;
78610;SDS011;67932;50.474;4.436;2023-03-08T15:52:46;10.63;;;7.20;;
78610;SDS011;67932;50.474;4.436;2023-03-08T15:55:12;14.73;;;7.78;;
78610;SDS011;67932;50.474;4.436;2023-03-08T15:57:39;13.88;;;8.13;;
78610;SDS011;67932;50.474;4.436;2023-03-08T16:00:06;13.52;;;7.32;;
78610;SDS011;67932;50.474;4.436;2023-03-08T16:02:36;11.27;;;7.40;;
78610;SDS011;67932;50.474;4.436;2023-03-08T16:05:03;13.98;;;7.55;;
78610;SDS011;67932;50.474;4.436;2023-03-08T16:07:30;13.90;;;6.95;;
78610;SDS011;67932;50.474;4.436;2023-03-08T16:09:56;15.07;;;8.13;;
78610;SDS011;67932;50.474;4.436;2023-03-08T16:12:22;15.00;;;8.38;;
78610;SDS011;67932;50.474;4.436;2023-03-08T16:14:48;13.82;;;8.15;;
78610;SDS011;67932;50.474;4.436;2023-03-08T16:17:19;15.60;;;8.63;;
78610;SDS011;67932;50.474;4.436;2023-03-08T16:19:45;13.25;;;8.45;;
78610;SDS011;67932;50.474;4.436;2023-03-08T16:22:11;12.57;;;7.05;;
78610;SDS011;67932;50.474;4.436;2023-03-08T16:24:37;14.65;;;8.32;;
78610;SDS011;67932;50.474;4.436;2023-03-08T16:27:03;13.82;;;8.35;;
78610;SDS011;67932;50.474;4.436;2023-03-08T16:29:30;14.68;;;8.73;;
78610;SDS011;67932;50.474;4.436;2023-03-08T16:31:57;14.73;;;8.45;;
78610;SDS011;67932;50.474;4.436;2023-03-08T16:34:23;14.88;;;8.43;;
78610;SDS011;67932;50.474;4.436;2023-03-08T16:36:50;18.17;;;9.63;;
78610;SDS011;67932;50.474;4.436;2023-03-08T16:39:16;15.88;;;9.30;;
78610;SDS011;67932;50.474;4.436;2023-03-08T16:41:42;17.75;;;9.50;;
78610;SDS011;67932;50.474;4.436;2023-03-08T16:44:16;17.90;;;10.10;;
78610;SDS011;67932;50.474;4.436;2023-03-08T16:46:43;18.48;;;9.60;;
78610;SDS011;67932;50.474;4.436;2023-03-08T16:49:09;18.70;;;10.95;;
78610;SDS011;67932;50.474;4.436;2023-03-08T16:51:35;19.40;;;10.63;;
78610;SDS011;67932;50.474;4.436;2023-03-08T16:54:01;20.80;;;11.75;;
78610;SDS011;67932;50.474;4.436;2023-03-08T16:56:28;19.25;;;10.98;;
78610;SDS011;67932;50.474;4.436;2023-03-08T16:58:55;18.55;;;10.35;;
78610;SDS011;67932;50.474;4.436;2023-03-08T17:01:22;17.55;;;9.63;;
78610;SDS011;67932;50.474;4.436;2023-03-08T17:03:48;17.63;;;10.15;;
78610;SDS011;67932;50.474;4.436;2023-03-08T17:06:15;18.85;;;9.95;;
78610;SDS011;67932;50.474;4.436;2023-03-08T17:08:41;21.40;;;10.70;;
78610;SDS011;67932;50.474;4.436;2023-03-08T17:11:15;20.75;;;11.38;;
78610;SDS011;67932;50.474;4.436;2023-03-08T17:13:41;20.05;;;9.43;;